Time;durP1;ratioP1;P1;durP2;ratioP2;P2;SDS_P1;SDS_P2;PMS_P1;PMS_P2;Temp;Humidity;BMP_temperature;BMP_pressure;BME280_temperature;BME280_humidity;BME280_pressure;Samples;Min_cycle;Max_cycle;Signal;HPM_P1;HPM_P2
2022/09/24 00:01:34;;;;;;;31.10;22.50;;;;;;;12.42;100.00;101171.75;5037862;28;20037;-87
2022/09/24 00:04:03;;;;;;;27.80;21.60;;;;;;;12.41;100.00;101168.16;5037607;28;20534;-87
2022/09/24 00:06:32;;;;;;;26.73;21.33;;;;;;;12.40;100.00;101168.38;5027507;28;20036;-87
2022/09/24 00:08:58;;;;;;;26.77;21.67;;;;;;;12.39;100.00;101161.28;5037575;28;20048;-88
2022/09/24 00:11:25;;;;;;;27.60;21.93;;;;;;;12.36;100.00;101167.97;5037592;28;20041;-87
2022/09/24 00:13:52;;;;;;;26.23;21.47;;;;;;;12.32;100.00;101162.16;5037952;28;20068;-88
2022/09/24 00:16:19;;;;;;;26.07;20.10;;;;;;;12.32;100.00;101158.59;5037611;28;20033;-88
2022/09/24 00:18:44;;;;;;;26.57;20.80;;;;;;;12.36;100.00;101156.28;5038514;28;20033;-89
2022/09/24 00:21:16;;;;;;;25.73;18.77;;;;;;;12.39;100.00;101155.84;5037587;28;20033;-89
2022/09/24 00:23:42;;;;;;;26.07;20.47;;;;;;;12.39;100.00;101155.84;5037708;28;20044;-89
2022/09/24 00:28:56;;;;;;;26.63;20.10;;;;;;;12.36;100.00;101150.84;5037949;28;21570;-89
2022/09/24 00:31:22;;;;;;;28.57;21.60;;;;;;;12.26;100.00;101146.72;5035941;28;20036;-88
2022/09/24 00:33:51;;;;;;;31.30;22.77;;;;;;;12.25;100.00;101142.34;5037302;28;20480;-88
2022/09/24 00:36:18;;;;;;;29.47;23.13;;;;;;;12.25;100.00;101145.06;5037130;28;20039;-88
2022/09/24 00:38:43;;;;;;;28.93;22.13;;;;;;;12.25;100.00;101145.06;5048339;28;20041;-90
2022/09/24 00:41:08;;;;;;;29.90;22.33;;;;;;;12.21;100.00;101141.13;5035489;28;20071;-88
2022/09/24 00:43:37;;;;;;;28.93;21.53;;;;;;;12.22;100.00;101145.47;5036993;28;20154;-90
2022/09/24 00:46:15;;;;;;;27.07;20.57;;;;;;;12.27;100.00;101142.94;5036807;28;20048;-89
2022/09/24 00:48:44;;;;;;;29.57;21.40;;;;;;;12.24;100.00;101139.81;5036932;28;20065;-89
2022/09/24 00:51:12;;;;;;;26.00;20.40;;;;;;;12.18;100.00;101132.56;5036456;28;20044;-87
2022/09/24 00:53:40;;;;;;;28.70;20.53;;;;;;;12.21;100.00;101132.09;5035625;28;20036;-89
2022/09/24 00:56:10;;;;;;;27.77;21.17;;;;;;;12.22;100.00;101121.03;5035696;28;20045;-90
2022/09/24 00:58:35;;;;;;;30.53;21.53;;;;;;;12.19;100.00;101129.63;5036954;28;20395;-89
2022/09/24 01:01:06;;;;;;;29.73;21.73;;;;;;;12.24;100.00;101127.09;5036685;28;20029;-91
2022/09/24 01:03:48;;;;;;;27.30;19.77;;;;;;;12.24;100.00;101124.38;5036732;28;20036;-88
2022/09/24 01:06:14;;;;;;;25.47;19.87;;;;;;;12.18;100.00;101114.34;5036581;28;20548;-88
2022/09/24 01:08:39;;;;;;;22.90;18.10;;;;;;;12.24;100.00;101121.66;5035277;28;20037;-89
2022/09/24 01:11:38;;;;;;;25.00;19.17;;;;;;;12.24;100.00;101118.09;5035872;28;20044;-88
2022/09/24 01:14:19;;;;;;;23.60;18.80;;;;;;;12.21;100.00;101119.38;5037067;28;20380;-89
2022/09/24 01:17:03;;;;;;;27.00;20.47;;;;;;;12.28;100.00;101105.75;5036099;28;20045;-90
2022/09/24 01:19:40;;;;;;;27.70;20.08;;;;;;;12.26;100.00;101108.69;5036735;28;20041;-89
2022/09/24 01:22:46;;;;;;;27.60;20.67;;;;;;;12.26;100.00;101103.25;5035826;28;20064;-88
2022/09/24 01:25:20;;;;;;;25.03;18.23;;;;;;;12.27;100.00;101099.47;5032787;28;20676;-88
2022/09/24 01:28:18;;;;;;;23.90;17.85;;;;;;;12.29;100.00;101097.41;5035959;28;20163;-88
2022/09/24 01:30:48;;;;;;;21.87;16.90;;;;;;;12.31;100.00;101092.56;5035981;28;20037;-89
2022/09/24 01:33:19;;;;;;;21.73;16.20;;;;;;;12.31;100.00;101095.28;5035957;28;20087;-87
2022/09/24 01:35:50;;;;;;;22.10;16.67;;;;;;;12.29;100.00;101091.09;5034684;28;20075;-89
2022/09/24 01:38:20;;;;;;;22.20;17.27;;;;;;;12.29;100.00;101086.53;5034814;28;20037;-88
2022/09/24 01:40:48;;;;;;;21.77;16.43;;;;;;;12.30;100.00;101085.44;5036275;28;20037;-87
2022/09/24 01:43:15;;;;;;;22.33;16.70;;;;;;;12.31;100.00;101078.16;5036406;28;20087;-89
2022/09/24 01:45:41;;;;;;;25.40;17.70;;;;;;;12.32;100.00;101088.81;5025753;28;20606;-88
2022/09/24 01:48:07;;;;;;;22.23;16.53;;;;;;;12.34;100.00;101075.00;5036600;28;20084;-86
2022/09/24 01:50:52;;;;;;;21.23;16.00;;;;;;;12.35;100.00;101083.97;5036178;28;20119;-88
2022/09/24 01:53:26;;;;;;;21.15;16.00;;;;;;;12.34;100.00;101083.16;5035744;28;20069;-89
2022/09/24 01:56:07;;;;;;;21.75;16.05;;;;;;;12.37;100.00;101080.00;5034431;28;20036;-88
2022/09/24 01:58:41;;;;;;;21.67;16.60;;;;;;;12.36;100.00;101083.75;5036209;28;20481;-89
2022/09/24 02:01:14;;;;;;;23.58;17.73;;;;;;;12.38;100.00;101075.41;5035862;28;20037;-89
2022/09/24 02:03:44;;;;;;;26.33;19.23;;;;;;;12.35;100.00;101073.09;5035549;28;20114;-87
2022/09/24 02:06:15;;;;;;;26.20;19.27;;;;;;;12.38;100.00;101073.50;5035786;28;20056;-88
2022/09/24 02:08:46;;;;;;;26.60;19.03;;;;;;;12.38;100.00;101073.50;5034858;28;20032;-87
2022/09/24 02:11:15;;;;;;;24.17;17.17;;;;;;;12.34;100.00;101075.00;5035222;28;20040;-88
2022/09/24 02:14:05;;;;;;;24.40;16.70;;;;;;;12.35;100.00;101060.38;5036214;28;20041;-87
2022/09/24 02:16:40;;;;;;;23.03;16.87;;;;;;;12.33;100.00;101062.44;5035954;28;20041;-87
2022/09/24 02:19:11;;;;;;;22.17;16.37;;;;;;;12.33;100.00;101062.44;5036029;28;20052;-87
2022/09/24 02:21:38;;;;;;;24.17;17.63;;;;;;;12.29;100.00;101062.06;5035200;28;20033;-88
2022/09/24 02:24:12;;;;;;;23.30;17.63;;;;;;;12.31;100.00;101068.09;5035809;28;20060;-89
2022/09/24 02:26:38;;;;;;;22.60;17.45;;;;;;;12.31;100.00;101062.69;5035338;28;20048;-86
2022/09/24 02:29:04;;;;;;;23.90;17.93;;;;;;;12.27;100.00;101061.44;5036122;28;20160;-88
2022/09/24 02:31:34;;;;;;;23.10;17.63;;;;;;;12.28;100.00;101060.41;5035648;28;20036;-88
2022/09/24 02:34:23;;;;;;;24.07;18.10;;;;;;;12.28;100.00;101062.28;5025313;28;20370;-86
2022/09/24 02:36:58;;;;;;;22.20;17.90;;;;;;;12.26;100.00;101054.34;5035939;28;20083;-87
2022/09/24 02:39:23;;;;;;;23.30;18.57;;;;;;;12.26;100.00;101061.66;5035403;28;20524;-87
2022/09/24 02:41:51;;;;;;;24.47;19.30;;;;;;;12.23;100.00;101053.97;5035131;28;20052;-87
2022/09/24 02:44:18;;;;;;;24.07;19.27;;;;;;;12.23;100.00;101052.06;5034945;28;20512;-87
2022/09/24 02:46:45;;;;;;;24.23;18.67;;;;;;;12.28;100.00;101045.97;5033862;28;20043;-85
2022/09/24 02:49:11;;;;;;;23.80;18.60;;;;;;;12.28;100.00;101041.38;5035238;28;20620;-85
2022/09/24 02:51:36;;;;;;;25.33;18.60;;;;;;;12.26;100.00;101042.66;5033503;28;20110;-88
2022/09/24 02:54:03;;;;;;;24.03;19.27;;;;;;;12.24;100.00;101037.44;5033833;28;20029;-88
2022/09/24 02:56:28;;;;;;;23.53;18.93;;;;;;;12.30;100.00;101043.88;5067115;28;20044;-90
2022/09/24 02:58:54;;;;;;;24.57;18.47;;;;;;;12.24;100.00;101040.16;5041769;28;20604;-87
2022/09/24 03:01:21;;;;;;;24.50;19.67;;;;;;;12.25;100.00;101038.25;5035184;28;20036;-87
2022/09/24 03:03:47;;;;;;;26.83;21.17;;;;;;;12.26;100.00;101037.22;5035503;28;20036;-87
2022/09/24 03:06:12;;;;;;;25.23;19.93;;;;;;;12.25;100.00;101033.69;5036676;28;20063;-87
2022/09/24 03:08:39;;;;;;;28.30;20.67;;;;;;;12.24;100.00;101037.44;5038086;28;20045;-87
2022/09/24 03:11:04;;;;;;;24.90;20.43;;;;;;;12.26;100.00;101032.59;5038148;28;20041;-85
2022/09/24 03:13:29;;;;;;;26.53;19.73;;;;;;;12.31;100.00;101040.94;5039512;28;20298;-88
2022/09/24 03:15:55;;;;;;;25.03;20.50;;;;;;;12.26;100.00;101029.88;5037064;28;20040;-85
2022/09/24 03:18:20;;;;;;;27.87;21.67;;;;;;;12.20;100.00;101030.78;5037175;28;20033;-87
2022/09/24 03:20:56;;;;;;;30.87;23.17;;;;;;;12.20;100.00;101033.50;5038956;28;20045;-86
2022/09/24 03:23:21;;;;;;;29.13;23.33;;;;;;;12.21;100.00;101029.75;5053880;28;21330;-87
2022/09/24 03:25:47;;;;;;;29.33;23.17;;;;;;;12.26;100.00;101029.06;5038782;28;20783;-86
2022/09/24 03:28:12;;;;;;;29.77;23.23;;;;;;;12.20;100.00;101019.91;5070499;28;20041;-87
2022/09/24 03:33:21;;;;;;;28.75;22.58;;;;;;;12.25;100.00;101025.53;5038458;28;20190;-87
2022/09/24 03:35:47;;;;;;;31.60;25.20;;;;;;;12.28;100.00;101027.81;5070860;28;20040;-88
2022/09/24 03:38:12;;;;;;;30.97;25.43;;;;;;;12.24;100.00;101029.28;5038598;28;20580;-89
2022/09/24 03:40:37;;;;;;;34.40;26.87;;;;;;;12.24;100.00;101025.72;5038591;28;20122;-87
2022/09/24 03:43:03;;;;;;;34.47;25.43;;;;;;;12.31;100.00;101032.78;5038562;28;20043;-86
2022/09/24 03:45:28;;;;;;;34.30;26.83;;;;;;;12.24;100.00;101023.84;5038511;28;20506;-86
2022/09/24 03:47:54;;;;;;;35.00;28.07;;;;;;;12.16;100.00;101022.22;5037593;28;20045;-86
2022/09/24 03:50:19;;;;;;;35.30;29.33;;;;;;;12.18;100.00;101019.28;5038502;28;20032;-88
2022/09/24 03:52:44;;;;;;;37.80;30.57;;;;;;;12.14;100.00;101012.63;5037414;28;20064;-87
2022/09/24 03:55:10;;;;;;;35.57;30.13;;;;;;;12.15;100.00;101017.00;5038464;28;20187;-86
2022/09/24 03:57:35;;;;;;;35.07;29.40;;;;;;;12.23;100.00;101015.94;5038202;28;20172;-89
2022/09/24 04:00:01;;;;;;;35.70;28.33;;;;;;;12.19;100.00;101012.00;5038533;28;20079;-86
2022/09/24 04:02:26;;;;;;;37.17;29.53;;;;;;;12.19;100.00;101007.38;5037152;28;21358;-87
2022/09/24 04:04:51;;;;;;;36.27;29.77;;;;;;;12.24;100.00;101007.56;5038329;28;20056;-87
2022/09/24 04:07:17;;;;;;;38.87;30.10;;;;;;;12.23;100.00;101007.78;5037509;28;20086;-85
2022/09/24 04:09:42;;;;;;;37.50;29.93;;;;;;;12.23;100.00;101000.44;5037278;28;20337;-86
2022/09/24 04:12:08;;;;;;;36.53;29.30;;;;;;;12.27;100.00;101001.69;5037739;28;20369;-87
2022/09/24 04:14:33;;;;;;;35.60;27.67;;;;;;;12.31;100.00;100997.47;5038237;28;20041;-85
2022/09/24 04:16:58;;;;;;;35.53;28.33;;;;;;;12.32;100.00;101001.84;5035853;28;20485;-87
2022/09/24 04:19:25;;;;;;;34.50;28.43;;;;;;;12.31;100.00;101000.19;5036926;28;20087;-88
2022/09/24 04:21:51;;;;;;;40.23;30.10;;;;;;;12.26;100.00;100997.28;5037490;28;20083;-87
2022/09/24 04:24:17;;;;;;;35.03;28.80;;;;;;;12.27;100.00;100996.25;5037132;28;20057;-86
2022/09/24 04:26:43;;;;;;;34.77;28.77;;;;;;;12.27;100.00;100992.72;5037590;28;20528;-87
2022/09/24 04:29:08;;;;;;;34.80;27.83;;;;;;;12.29;100.00;100993.31;5036664;28;20033;-84
2022/09/24 04:31:33;;;;;;;36.23;30.00;;;;;;;12.18;100.00;100992.13;5037425;28;20457;-86
2022/09/24 04:33:59;;;;;;;33.93;28.90;;;;;;;12.20;100.00;100995.47;5069656;28;20059;-86
2022/09/24 04:36:24;;;;;;;36.40;28.20;;;;;;;12.19;100.00;100987.53;5037568;28;20087;-88
2022/09/24 04:38:49;;;;;;;35.27;27.50;;;;;;;12.14;100.00;100990.91;5069377;28;20087;-86
2022/09/24 04:41:15;;;;;;;36.40;29.13;;;;;;;12.12;100.00;100982.16;5036680;28;20029;-87
2022/09/24 04:43:41;;;;;;;35.70;28.67;;;;;;;12.14;100.00;100993.63;5035883;28;20060;-86
2022/09/24 04:46:08;;;;;;;36.17;28.23;;;;;;;12.18;100.00;100992.13;5036982;28;20041;-87
2022/09/24 04:48:37;;;;;;;37.60;28.90;;;;;;;12.10;100.00;100992.38;5037194;28;21761;-87
2022/09/24 04:51:04;;;;;;;39.07;29.13;;;;;;;12.09;100.00;100993.44;5035906;28;20041;-87
2022/09/24 04:53:31;;;;;;;37.67;28.63;;;;;;;12.09;100.00;100986.13;5036856;28;20333;-86
2022/09/24 04:55:57;;;;;;;36.77;28.27;;;;;;;12.08;100.00;100997.22;5037132;28;20040;-86
2022/09/24 04:58:22;;;;;;;36.37;28.73;;;;;;;12.07;100.00;100990.13;5036923;28;20040;-87
2022/09/24 05:00:50;;;;;;;35.27;29.23;;;;;;;12.03;100.00;100995.13;5036896;28;20073;-86
2022/09/24 05:03:15;;;;;;;35.43;29.27;;;;;;;12.06;100.00;100996.59;5051392;28;20377;-86
2022/09/24 05:05:41;;;;;;;35.97;28.80;;;;;;;12.08;100.00;100997.22;5037211;28;20466;-86
2022/09/24 05:08:06;;;;;;;37.30;28.70;;;;;;;12.04;100.00;100994.09;5036150;28;20041;-87
2022/09/24 05:10:32;;;;;;;34.97;29.37;;;;;;;12.02;100.00;100988.03;5037524;28;20468;-83
2022/09/24 05:12:57;;;;;;;37.23;29.47;;;;;;;12.01;100.00;100990.97;5036693;28;20044;-84
2022/09/24 05:15:23;;;;;;;36.10;28.43;;;;;;;12.11;100.00;100994.06;5036696;28;20053;-87
2022/09/24 05:17:48;;;;;;;35.43;29.07;;;;;;;12.08;100.00;100991.78;5042747;28;20519;-87
2022/09/24 05:20:15;;;;;;;35.90;29.33;;;;;;;12.09;100.00;100994.28;5051739;28;20049;-87
2022/09/24 05:22:42;;;;;;;40.03;28.90;;;;;;;12.11;100.00;100992.16;5036581;28;20076;-86
2022/09/24 05:25:07;;;;;;;33.87;26.37;;;;;;;12.06;100.00;100992.00;5035838;28;20047;-86
2022/09/24 05:27:34;;;;;;;36.23;29.27;;;;;;;12.09;100.00;100988.00;5036060;28;20343;-85
2022/09/24 05:30:00;;;;;;;36.10;28.50;;;;;;;12.13;100.00;100994.66;5033774;28;20033;-86
2022/09/24 05:32:26;;;;;;;35.17;27.87;;;;;;;12.11;100.00;100986.72;5067424;28;20516;-85
2022/09/24 05:34:52;;;;;;;35.53;26.80;;;;;;;12.12;100.00;100990.28;5036236;28;20119;-84
2022/09/24 05:37:18;;;;;;;33.37;26.60;;;;;;;12.16;100.00;100995.06;5067704;28;20041;-85
2022/09/24 05:39:43;;;;;;;31.80;24.40;;;;;;;12.20;100.00;100995.47;5036354;28;20029;-87
2022/09/24 05:42:12;;;;;;;30.17;24.70;;;;;;;12.12;100.00;101001.16;5035664;28;20094;-85
2022/09/24 05:44:38;;;;;;;31.37;24.60;;;;;;;12.11;100.00;101003.03;5036071;28;20059;-88
2022/09/24 05:47:03;;;;;;;30.23;24.10;;;;;;;12.18;100.00;101004.88;5035426;28;20041;-87
2022/09/24 05:49:29;;;;;;;28.63;21.53;;;;;;;12.18;100.00;101008.41;5035450;28;20083;-85
2022/09/24 05:51:54;;;;;;;29.70;23.03;;;;;;;12.13;100.00;101002.81;5067359;28;20055;-85
2022/09/24 05:54:20;;;;;;;27.87;21.83;;;;;;;12.20;100.00;101008.19;5035645;28;20496;-87
2022/09/24 05:56:46;;;;;;;29.03;23.00;;;;;;;12.13;100.00;101005.50;5035700;28;20029;-87
2022/09/24 05:59:12;;;;;;;30.03;22.40;;;;;;;12.14;100.00;101012.63;5036256;28;20033;-86
2022/09/24 06:01:37;;;;;;;29.27;22.73;;;;;;;12.08;100.00;101008.09;5035668;28;20528;-87
2022/09/24 06:04:02;;;;;;;29.67;22.97;;;;;;;12.06;100.00;101015.59;5050731;28;20074;-89
2022/09/24 06:06:28;;;;;;;29.00;22.70;;;;;;;12.05;100.00;101009.34;5035701;28;20043;-86
2022/09/24 06:08:54;;;;;;;27.23;22.17;;;;;;;12.08;100.00;101013.50;5067291;28;20163;-88
2022/09/24 06:11:21;;;;;;;28.30;22.07;;;;;;;12.08;100.00;101013.50;5035405;28;20484;-86
2022/09/24 06:13:47;;;;;;;27.03;21.47;;;;;;;12.08;100.00;101021.66;5034827;28;20106;-87
2022/09/24 06:16:13;;;;;;;28.57;22.27;;;;;;;12.09;100.00;101021.44;5035586;28;20426;-88
2022/09/24 06:18:40;;;;;;;28.60;22.17;;;;;;;12.05;100.00;101020.22;5035312;28;20333;-87
2022/09/24 06:21:09;;;;;;;28.67;23.03;;;;;;;12.00;100.00;101020.03;5035801;28;20029;-87
2022/09/24 06:23:35;;;;;;;31.07;23.77;;;;;;;12.01;100.00;101018.13;5033614;28;20035;-87
2022/09/24 06:26:01;;;;;;;29.17;23.87;;;;;;;12.03;100.00;101011.44;5035663;28;20025;-87
2022/09/24 06:28:26;;;;;;;30.93;23.87;;;;;;;12.01;100.00;101018.13;5035685;28;21473;-88
2022/09/24 06:30:52;;;;;;;26.67;20.57;;;;;;;12.08;100.00;101022.47;5035652;28;20597;-87
2022/09/24 06:33:22;;;;;;;28.10;21.27;;;;;;;12.12;100.00;101028.31;5034574;28;20131;-88
2022/09/24 06:35:47;;;;;;;27.80;22.10;;;;;;;12.11;100.00;101021.22;5035757;28;20086;-87
2022/09/24 06:38:15;;;;;;;31.67;24.43;;;;;;;12.02;100.00;101022.50;5065158;28;20508;-89
2022/09/24 06:40:42;;;;;;;32.13;24.60;;;;;;;12.04;100.00;101031.28;5036112;28;20032;-88
2022/09/24 06:43:09;;;;;;;30.90;23.53;;;;;;;11.97;100.00;101036.75;5038741;28;20041;-89
2022/09/24 06:45:35;;;;;;;29.37;23.27;;;;;;;11.97;100.00;101029.44;5039391;28;20428;-86
2022/09/24 06:48:02;;;;;;;28.93;22.13;;;;;;;12.01;100.00;101037.13;5039209;28;20033;-88
2022/09/24 06:50:29;;;;;;;29.67;23.63;;;;;;;11.98;100.00;101030.25;5039289;28;21436;-88
2022/09/24 06:52:55;;;;;;;29.20;23.10;;;;;;;12.02;100.00;101036.09;5039245;28;20056;-87
2022/09/24 06:55:21;;;;;;;28.63;22.30;;;;;;;12.03;100.00;101040.47;5039112;28;20422;-89
2022/09/24 06:57:47;;;;;;;29.30;22.30;;;;;;;12.04;100.00;101044.88;5038781;28;20037;-86
2022/09/24 07:00:13;;;;;;;29.53;22.90;;;;;;;12.04;100.00;101039.44;5038673;28;20037;-87
2022/09/24 07:02:39;;;;;;;28.17;22.23;;;;;;;12.01;100.00;101043.41;5038871;28;20603;-88
2022/09/24 07:05:06;;;;;;;28.37;23.27;;;;;;;11.98;100.00;101035.69;5039364;28;20031;-92
2022/09/24 07:07:34;;;;;;;29.57;23.73;;;;;;;11.96;100.00;101046.75;5038902;28;20116;-91
2022/09/24 07:10:02;;;;;;;28.10;21.77;;;;;;;11.98;100.00;101046.53;5039224;28;20385;-88
2022/09/24 07:12:29;;;;;;;28.70;22.80;;;;;;;11.96;100.00;101048.66;5038486;28;20029;-87
2022/09/24 07:14:55;;;;;;;28.87;22.87;;;;;;;11.96;100.00;101060.34;5038186;28;20045;-89
2022/09/24 07:17:21;;;;;;;29.83;23.40;;;;;;;11.97;100.00;101050.34;5039104;28;20462;-89
2022/09/24 07:19:46;;;;;;;31.57;23.10;;;;;;;11.98;100.00;101052.81;5070617;28;20569;-87
2022/09/24 07:22:11;;;;;;;30.03;23.53;;;;;;;12.01;100.00;101053.44;5038146;28;20483;-88
2022/09/24 07:24:37;;;;;;;29.13;23.10;;;;;;;11.97;100.00;101051.16;5038780;28;20048;-89
2022/09/24 07:27:06;;;;;;;28.60;21.63;;;;;;;12.07;100.00;101061.53;5038254;28;20037;-91
2022/09/24 07:29:32;;;;;;;30.07;24.23;;;;;;;12.02;100.00;101057.81;5038874;28;20064;-88
2022/09/24 07:31:58;;;;;;;28.83;23.63;;;;;;;12.01;100.00;101051.56;5038669;28;20467;-90
2022/09/24 07:34:23;;;;;;;31.70;25.33;;;;;;;12.05;100.00;101055.50;5038496;28;20045;-89
2022/09/24 07:36:49;;;;;;;30.43;25.03;;;;;;;12.07;100.00;101063.44;5038996;28;20036;-89
2022/09/24 07:39:15;;;;;;;31.50;23.93;;;;;;;12.11;100.00;101072.81;5038522;28;20155;-90
2022/09/24 07:41:41;;;;;;;30.50;24.37;;;;;;;12.09;100.00;101064.03;5038131;28;20029;-87
2022/09/24 07:44:07;;;;;;;32.70;25.40;;;;;;;12.10;100.00;101073.88;5069523;28;20413;-89
2022/09/24 07:46:32;;;;;;;28.67;22.57;;;;;;;12.10;100.00;101069.28;5038333;28;20067;-87
2022/09/24 07:48:58;;;;;;;30.07;23.13;;;;;;;12.10;100.00;101082.00;5038466;28;20041;-88
2022/09/24 07:51:28;;;;;;;32.03;26.50;;;;;;;12.06;100.00;101078.06;5037090;28;20033;-87
2022/09/24 07:53:54;;;;;;;34.40;27.03;;;;;;;12.07;100.00;101077.03;5036740;28;20128;-90
2022/09/24 07:56:20;;;;;;;31.03;24.47;;;;;;;12.11;100.00;101078.25;5037924;28;20044;-88
2022/09/24 07:58:50;;;;;;;29.63;25.43;;;;;;;12.06;100.00;101080.78;5037486;28;20041;-87
2022/09/24 08:01:16;;;;;;;30.60;24.40;;;;;;;12.12;100.00;101079.94;5038058;28;20477;-89
2022/09/24 08:03:45;;;;;;;31.63;23.87;;;;;;;12.12;100.00;101085.38;5037929;28;20253;-88
2022/09/24 08:06:11;;;;;;;32.93;26.23;;;;;;;12.08;100.00;101090.38;5035654;28;20064;-92
2022/09/24 08:08:42;;;;;;;35.47;27.17;;;;;;;12.09;100.00;101085.78;5037710;28;20106;-92
2022/09/24 08:11:09;;;;;;;30.57;24.33;;;;;;;12.10;100.00;101084.72;5037921;28;20626;-88
2022/09/24 08:13:35;;;;;;;33.27;25.60;;;;;;;12.17;100.00;101090.94;5037791;28;20087;-90
2022/09/24 08:16:02;;;;;;;33.43;26.87;;;;;;;12.20;100.00;101092.41;5037292;28;20100;-89
2022/09/24 08:18:30;;;;;;;34.43;27.97;;;;;;;12.18;100.00;101087.19;5037629;28;20033;-87
2022/09/24 08:20:56;;;;;;;33.53;25.73;;;;;;;12.23;100.00;101100.16;5038138;28;20053;-88
2022/09/24 08:23:22;;;;;;;34.70;25.97;;;;;;;12.25;100.00;101098.88;5037043;28;20568;-88
2022/09/24 08:25:47;;;;;;;30.60;25.27;;;;;;;12.27;100.00;101094.06;5037754;28;20047;-88
2022/09/24 08:28:15;;;;;;;33.13;26.83;;;;;;;12.27;100.00;101098.66;5037659;28;20047;-88
2022/09/24 08:30:42;;;;;;;32.43;26.10;;;;;;;12.25;100.00;101101.59;5037062;28;20175;-87
2022/09/24 08:33:08;;;;;;;32.87;25.93;;;;;;;12.24;100.00;101109.94;5036447;28;20041;-87
2022/09/24 08:35:34;;;;;;;32.67;26.83;;;;;;;12.25;100.00;101107.03;5037704;28;20163;-90
2022/09/24 08:38:00;;;;;;;31.57;25.90;;;;;;;12.26;100.00;101108.69;5036960;28;20148;-89
2022/09/24 08:40:29;;;;;;;33.00;27.03;;;;;;;12.32;100.00;101109.69;5037082;28;20047;-88
2022/09/24 08:43:00;;;;;;;35.07;27.13;;;;;;;12.32;100.00;101113.25;5037113;28;20029;-89
2022/09/24 08:48:19;;;;;;;32.83;27.85;;;;;;;12.29;100.00;101113.69;5036624;28;20704;-88
2022/09/24 08:50:59;;;;;;;34.30;27.50;;;;;;;12.29;100.00;101113.69;5037133;28;20466;-84
2022/09/24 08:53:34;;;;;;;31.60;26.07;;;;;;;12.29;100.00;101113.69;5036536;28;20063;-83
2022/09/24 08:56:00;;;;;;;30.90;25.13;;;;;;;12.33;100.00;101116.78;5051945;28;20127;-83
2022/09/24 08:58:36;;;;;;;30.67;25.70;;;;;;;12.37;100.00;101111.78;5036659;28;20132;-83
2022/09/24 09:01:10;;;;;;;33.80;27.63;;;;;;;12.28;100.00;101117.47;5036796;28;20064;-85
2022/09/24 09:03:55;;;;;;;32.00;25.37;;;;;;;12.32;100.00;101123.28;5036966;28;20032;-84
2022/09/24 09:06:57;;;;;;;28.38;23.75;;;;;;;12.41;100.00;101121.16;5036954;28;20124;-84
2022/09/24 09:09:28;;;;;;;33.83;26.07;;;;;;;12.41;100.00;101126.59;5036675;28;20393;-84
2022/09/24 09:12:04;;;;;;;34.03;27.83;;;;;;;12.37;100.00;101131.63;5036503;28;20420;-84
2022/09/24 09:14:33;;;;;;;32.33;25.80;;;;;;;12.40;100.00;101130.34;5036895;28;20041;-84
2022/09/24 09:17:08;;;;;;;35.13;26.33;;;;;;;12.41;100.00;101127.41;5043302;28;20097;-84
2022/09/24 09:19:34;;;;;;;31.13;24.10;;;;;;;12.40;100.00;101135.78;5036228;28;20181;-84
2022/09/24 09:22:06;;;;;;;31.37;24.73;;;;;;;12.44;100.00;101127.00;5036300;28;20037;-84
2022/09/24 09:24:46;;;;;;;29.90;24.80;;;;;;;12.49;100.00;101134.47;5036429;28;20035;-84
2022/09/24 09:27:16;;;;;;;31.73;26.00;;;;;;;12.51;100.00;101137.81;5036929;28;20036;-84
2022/09/24 09:29:49;;;;;;;32.10;25.47;;;;;;;12.51;100.00;101132.38;5036114;28;20029;-87
2022/09/24 09:32:23;;;;;;;35.20;27.63;;;;;;;12.54;100.00;101131.09;5036486;28;20190;-83
2022/09/24 09:34:58;;;;;;;31.08;24.17;;;;;;;12.56;100.00;101142.59;5066926;28;20041;-84
2022/09/24 09:37:43;;;;;;;32.13;25.43;;;;;;;12.51;100.00;101137.81;5036816;28;20404;-84
2022/09/24 09:40:15;;;;;;;;;;;;;;;12.58;100.00;101133.19;5037175;28;20032;-83
2022/09/24 09:42:41;;;;;;;34.93;26.60;;;;;;;12.55;100.00;101140.94;5036635;28;20023;-84
2022/09/24 09:45:32;;;;;;;30.47;25.37;;;;;;;12.49;100.00;101138.03;5035606;28;20037;-84
2022/09/24 09:48:01;;;;;;;29.97;24.97;;;;;;;12.52;100.00;101135.94;5036338;28;20399;-84
2022/09/24 09:50:27;;;;;;;33.50;26.37;;;;;;;12.52;100.00;101136.75;5036317;28;20033;-85
2022/09/24 09:52:54;;;;;;;34.30;26.23;;;;;;;12.59;100.00;101137.56;5035672;28;20041;-84
2022/09/24 09:55:33;;;;;;;34.90;27.83;;;;;;;12.60;100.00;101146.56;5036222;28;20087;-84
2022/09/24 09:58:30;;;;;;;35.63;28.40;;;;;;;12.58;100.00;101138.63;5034730;28;20041;-85
2022/09/24 10:01:07;;;;;;;34.70;28.23;;;;;;;12.64;100.00;101142.34;5025897;28;20041;-83
2022/09/24 10:03:46;;;;;;;34.20;26.83;;;;;;;12.67;100.00;101144.63;5036120;28;20037;-84
2022/09/24 10:06:33;;;;;;;33.30;27.23;;;;;;;12.63;100.00;101140.69;5035922;28;20056;-82
2022/09/24 10:09:14;;;;;;;32.33;25.50;;;;;;;12.65;100.00;101141.31;5035361;28;20056;-84
2022/09/24 10:12:20;;;;;;;31.57;25.57;;;;;;;12.66;100.00;101141.09;5035797;28;20041;-83
2022/09/24 10:15:03;;;;;;;34.13;26.50;;;;;;;12.69;100.00;101152.56;5035717;28;20040;-83
2022/09/24 10:17:37;;;;;;;32.37;25.40;;;;;;;12.68;100.00;101148.19;5036369;28;20033;-84
2022/09/24 10:20:28;;;;;;;30.55;25.80;;;;;;;12.72;100.00;101138.53;5036087;28;20041;-83
2022/09/24 10:23:06;;;;;;;30.03;24.90;;;;;;;12.73;100.00;101145.63;5027769;28;20049;-83
2022/09/24 10:25:35;;;;;;;31.90;26.30;;;;;;;12.72;100.00;101133.94;5034573;28;20043;-83
2022/09/24 10:31:02;;;;;;;31.00;25.33;;;;;;;12.80;100.00;101141.00;5035149;28;20657;-81
2022/09/24 10:33:36;;;;;;;31.33;25.93;;;;;;;12.82;100.00;101137.00;5035407;28;20643;-83
2022/09/24 10:36:03;;;;;;;;;;;;;;;12.87;100.00;101139.06;5036543;28;20324;-83
2022/09/24 10:38:30;;;;;;;31.93;24.80;;;;;;;12.88;100.00;101140.72;5035215;28;19950;-83
2022/09/24 10:40:56;;;;;;;29.80;23.87;;;;;;;12.93;100.00;101143.63;5033740;28;20040;-83
2022/09/24 10:43:21;;;;;;;31.17;25.10;;;;;;;12.96;100.00;101142.34;5050382;28;20033;-83
2022/09/24 10:46:35;;;;;;;30.00;23.63;;;;;;;12.96;100.00;101139.63;5035923;28;20137;-83
2022/09/24 10:49:13;;;;;;;29.13;23.90;;;;;;;13.03;100.00;101153.16;5013859;28;20041;-83
2022/09/24 10:51:51;;;;;;;28.67;23.33;;;;;;;13.00;100.00;101146.28;5013768;28;20130;-83
2022/09/24 10:54:26;;;;;;;28.90;23.30;;;;;;;13.08;100.00;101143.31;5026928;28;20091;-82
2022/09/24 10:56:55;;;;;;;30.07;24.77;;;;;;;13.08;100.00;101145.19;5035582;28;20116;-82
2022/09/24 10:59:38;;;;;;;29.37;24.40;;;;;;;13.13;100.00;101148.91;5035002;28;21558;-84
2022/09/24 11:02:12;;;;;;;31.87;24.20;;;;;;;13.14;100.00;101152.47;5035047;28;20504;-85
2022/09/24 11:04:46;;;;;;;;;;;;;;;13.16;100.00;101145.75;5035795;28;20133;-88
2022/09/24 11:07:33;;;;;;;27.93;23.27;;;;;;;13.16;100.00;101142.19;5035118;28;19921;-85
2022/09/24 11:10:17;;;;;;;29.67;24.30;;;;;;;13.25;100.00;101157.19;5034748;28;21065;-84
2022/09/24 11:12:59;;;;;;;30.57;23.93;;;;;;;13.30;100.00;101157.34;5035199;28;20044;-85
2022/09/24 11:15:52;;;;;;;30.50;24.43;;;;;;;13.30;100.00;101161.94;5035085;28;20226;-84
2022/09/24 11:18:32;;;;;;;29.83;24.33;;;;;;;13.33;100.00;101162.34;5035167;28;20497;-86
2022/09/24 11:21:13;;;;;;;30.13;23.97;;;;;;;13.39;100.00;101173.44;5034886;28;20048;-85
2022/09/24 11:24:09;;;;;;;28.70;23.20;;;;;;;13.44;100.00;101168.16;5034850;28;20065;-84
2022/09/24 11:26:50;;;;;;;30.13;23.60;;;;;;;13.46;100.00;101169.63;5035451;28;20037;-85